Rattan, Oklahoma
Current Conditions -  °F | °C
As of 10:35 PM on Saturday 22 Nov 2014 (Local Time) from KHHW Reporting Station
Broken Clouds Broken Clouds  
Wind Chill: 60°   Ceiling: 400
Heat Index: 60°   Visibility: 7mi
Dew Point: 58°   Wind: 18mph
Humidity: 92%   Direction: 120°ESE
Pressure: 29.68"   Gusts: 23mph
Location:  34.2°N, 95.41°W
Report Text: KHHW 230435Z AUTO 12016G20KT 7SM BKN004 16/14 A2968 RMK AO2 T01550142
Loading
Personal Weather Stations






























Interactive Weather Map New forecast layout! Learn more

10-Day Weather Forecast

Advertisements
Track Severe Weather on mobile